createdAt,value
2022-08-02T00:02:50.041Z,66.2
2022-08-02T00:22:50.017Z,67.3
2022-08-02T00:42:50.061Z,67.2
2022-08-02T01:02:49.956Z,68.1
2022-08-02T01:22:49.926Z,69.7
2022-08-02T01:42:49.854Z,69.7
2022-08-02T02:02:49.843Z,70.9
2022-08-02T02:22:49.849Z,70.7
2022-08-02T02:42:49.819Z,71.3
2022-08-02T03:02:49.813Z,72.3
2022-08-02T03:22:49.698Z,72.9
2022-08-02T03:42:49.744Z,73.2
2022-08-02T04:22:49.698Z,73.1
2022-08-02T04:42:49.680Z,73.7
2022-08-02T05:02:49.602Z,75.7
2022-08-02T05:22:49.655Z,74.4
2022-08-02T05:42:49.557Z,74.0
2022-08-02T06:02:49.570Z,72.9
2022-08-02T06:22:49.551Z,72.2
2022-08-02T06:42:49.460Z,71.4
2022-08-02T07:22:49.498Z,69.0
2022-08-02T07:42:49.450Z,65.0
2022-08-02T08:02:49.374Z,60.7
2022-08-02T08:22:49.310Z,52.0
2022-08-02T08:42:49.323Z,51.7
2022-08-02T09:02:49.313Z,49.2
2022-08-02T09:22:49.335Z,46.5
2022-08-02T09:42:49.239Z,48.8
2022-08-02T10:02:49.257Z,46.9
2022-08-02T10:22:49.170Z,44.1
2022-08-02T10:42:49.224Z,44.6
2022-08-02T11:02:49.189Z,43.5
2022-08-02T11:22:49.105Z,41.1
2022-08-02T11:42:49.061Z,36.7
2022-08-02T12:02:49.028Z,37.2
2022-08-02T12:22:49.018Z,38.1
2022-08-02T12:42:49.008Z,35.7
2022-08-02T13:02:49.020Z,35.7
2022-08-02T13:22:48.930Z,33.6
2022-08-02T13:42:48.930Z,35.6
2022-08-02T14:02:48.891Z,33.4
2022-08-02T14:42:48.939Z,32.0
2022-08-02T15:02:48.835Z,35.1
2022-08-02T15:22:48.795Z,31.2
2022-08-02T15:42:48.793Z,31.4
2022-08-02T16:02:48.820Z,32.5
2022-08-02T16:22:48.713Z,33.2
2022-08-02T16:42:48.711Z,36.0
2022-08-02T17:02:48.681Z,36.2
2022-08-02T17:22:48.717Z,36.3
2022-08-02T17:42:48.686Z,36.8
2022-08-02T18:02:48.749Z,39.0
2022-08-02T18:22:48.777Z,38.3
2022-08-02T18:42:48.642Z,39.4
2022-08-02T19:02:48.535Z,41.1
2022-08-02T19:22:48.583Z,42.4
2022-08-02T19:42:48.484Z,44.7
2022-08-02T20:02:48.491Z,46.3
2022-08-02T20:22:48.476Z,49.5
2022-08-02T20:42:48.422Z,48.9
2022-08-02T21:02:48.418Z,52.3
2022-08-02T21:22:48.349Z,49.8
2022-08-02T21:42:48.318Z,51.1
2022-08-02T22:02:48.319Z,52.8
2022-08-02T22:22:48.361Z,52.9
2022-08-02T22:42:48.284Z,55.3
2022-08-02T23:02:48.264Z,54.4
2022-08-02T23:22:48.210Z,53.4
2022-08-02T23:42:48.202Z,53.6
